x

Gulf Of Maine - 78 Nm East Of Portsmouth, Nh (44005) Wave Buoy

7:50 - Thu 26th May 2016 All times are EDT. -4 hours from GMT.

  • Sig Wave height 2.6ft
  • Peak Period 8s
  • Average Period 6s
  • Wind
    9mph, 11mph gusts
  • Sea Temp 51°f
  • Air Temp 54°f
  • Sea Pressure 1018.5mb
  • Gulf Of Maine - 78 Nm East Of Portsmouth, Nh
  • Gulf Of Maine - 78 Nm East Of Portsmouth, Nh

More Historic Weather Station data

Upgrade to MSW Pro to gain access to the past 30 days of data for over 8000 Wavebouys and Weather Stations around the globe.

Join Pro

Comparision Forecast

View Surf forecast
   
jeu. 05/26 7:50 2.5ft 8s 6s 9 11 mph 1018.5mb 51f 54f
6:50 2.5ft 8s 6s 7
mph
1017.7mb 51f 54f
5:50 2.5ft 8s 6s 9
mph
1016.9mb 51f 54f
4:50 2.5ft 8s 6s 7
mph
1016mb 51f 54f
3:50 2.5ft 9s 6s 9
mph
1015.3mb 51f 53f
2:50 2.5ft 8s 5s 9
mph
1014.6mb 51f 53f
1:50 3ft 8s 5s 7 9 mph 1013.9mb 51f 53f
12:50 3.5ft 7s 5s 2
mph
1013.6mb 51f 53f
mer. 05/25 11:50 3.5ft 8s 5s 7 9 mph 1013.6mb 51f 53f
10:50 4ft 7s 5s 7 11 mph 1014.3mb 51f 53f
9:50 4ft 7s 5s 7 9 mph 1013.6mb 51f 53f
8:50 4.5ft 7s 5s 11 13 mph 1013.5mb 51f 53f
7:50 4ft 8s 6s 13 18 mph 1013.4mb 51f 53f
6:50 3.5ft 8s 5s 16
mph
1013.4mb 52f 53f
5:50 3.5ft 7s 6s 16 18 mph 1013.4mb 52f 52f
4:50 3ft 8s 6s 11 13 mph 1014.1mb 52f 51f
3:50 3ft 8s 6s 11 13 mph 1014.3mb 52f 50f
2:50 3ft 8s 7s 11 13 mph 1014.7mb 52f 50f
1:50 3ft 8s 6s 9 11 mph 1014.4mb 52f 49f
12:50 3.5ft 8s 6s 9 11 mph 1015.2mb 51f 49f
11:50 3.5ft 7s 7s 7 9 mph 1015.9mb 51f 49f
10:50 3.5ft 8s 7s 7 11 mph 1015.8mb 51f 50f
9:50 4ft 8s 7s 7 9 mph 1015.8mb 51f 50f
8:50 4ft 7s 7s 4
mph
1015.6mb 50f 49f
7:50 4ft 8s 7s 4 9 mph 1015.4mb 49f 49f
6:50 3.5ft 8s 7s 9 11 mph 1015.2mb 49f 49f
5:50 3.5ft 8s 7s 4
mph
1014.8mb 49f 49f
4:50 3.5ft 8s 7s 2 4 mph 1014.3mb 49f 49f
3:50 2.5ft 8s 6s 4 7 mph 1014.1mb 49f 49f
2:50 2.5ft 8s 6s 7 9 mph 1013.9mb 49f 49f
1:50 3ft 9s 6s 7 9 mph 1014.1mb 49f 50f
12:50 3.5ft 9s 6s 7 9 mph 1013.7mb 49f 50f
mar. 05/24 11:50 3.5ft 9s 6s 7 9 mph 1014mb 49f 49f
10:50 3.5ft 8s 6s  -  2 mph 1014.3mb 49f 49f
9:50 4ft 8s 6s 7
mph
1014.4mb 49f 49f
8:50 4ft 9s 6s  -  2 mph 1014.3mb 49f 49f
7:50 4.5ft 9s 6s 2
mph
1014.3mb 50f 49f
6:50 5ft 8s 7s 7 9 mph 1014.1mb 50f 49f
5:50 4.5ft 8s 6s 4 7 mph 1013.8mb 50f 50f
4:50 4.5ft 8s 6s 7 9 mph 1013.8mb 50f 50f
3:50 4ft 9s 6s 7
mph
1013.8mb 49f 50f
2:50 4ft 8s 6s 7
mph
1014mb 49f 49f
1:50 3.5ft 9s 5s 11
mph
1013.9mb 49f 49f
12:50 3.5ft 10s 5s 13 16 mph 1013.7mb 49f 49f
11:50 4ft 9s 5s 16 20 mph 1013.8mb 49f 49f
10:50 4ft 9s 5s 18 22 mph 1013.6mb 49f 49f
9:50 4.5ft 10s 6s 13 16 mph 1014.1mb 49f 48f
8:50 4.5ft 10s 6s 18 20 mph 1013.8mb 49f 48f
7:50 4.5ft 9s 6s 18 20 mph 1013.7mb 49f 48f
6:50 4.5ft 8s 6s 16 18 mph 1013.7mb 49f 48f
5:50 4.5ft 10s 7s 16 20 mph 1013.2mb 49f 47f
4:50 4.5ft 9s 7s 16 18 mph 1013.3mb 49f 48f
3:50 4.5ft 9s 7s 13 16 mph 1013.6mb 49f 48f
2:50 4ft 9s 7s 13
mph
1013.8mb 49f 49f
1:50 4.5ft 9s 7s 9 11 mph 1013.4mb 49f 50f
12:50 4ft 10s 7s 11
mph
1012.7mb 49f 50f
lun. 05/23 11:50 4ft 10s 7s 7 9 mph 1013.2mb 50f 51f
10:50 4.5ft 10s 7s 4 7 mph 1013.3mb 49f 51f
9:50 4.5ft 10s 7s 7
mph
1013.1mb 50f 51f
8:50 5.5ft 10s 8s 4 7 mph 1013.2mb 50f 52f
7:50 5.5ft 10s 8s 4 7 mph 1012.4mb 51f 52f
6:50 5.5ft 10s 8s 2 4 mph 1012.6mb 51f 53f
5:50 5.5ft 9s 8s 7
mph
1012.9mb 52f 52f
4:50 5.5ft 10s 8s 7 9 mph 1012.1mb 52f 53f
3:50 5.5ft 9s 7s 7 9 mph 1012mb 52f 53f
2:50 5.5ft 10s 7s 7 9 mph 1012mb 51f 53f
1:50 5ft 10s 7s 4 7 mph 1012mb 51f 53f
12:50 5ft 10s 7s 4
mph
1012mb 50f 54f
11:50 5ft 10s 7s 9 11 mph 1011.9mb 50f 53f
10:50 5ft 11s 7s 13 16 mph 1011.6mb 49f 53f
9:50 5ft 11s 7s 11 13 mph 1011.8mb 49f 52f
8:50 5.5ft 11s 7s 13 16 mph 1011.8mb 49f 52f
7:50 6ft 11s 7s 11 16 mph 1012.1mb 49f 52f
6:50 6.5ft 11s  -  13 18 mph 1011.4mb 49f 53f
5:50 7ft 11s 7s 13 16 mph 1011.4mb 49f 52f
4:50 6ft 10s 7s 16 18 mph 1010.8mb 49f 52f
3:50 6ft 10s 7s 16 20 mph 1010.5mb 49f 51f
2:50 5.5ft 11s 7s 13 16 mph 1010.6mb 50f 52f
1:50 4.5ft 10s 6s 13 16 mph 1010.6mb 50f 52f
12:50 4.5ft 9s 6s 13 18 mph 1010.6mb 50f 52f
dim. 05/22 11:50 4.5ft 11s 6s 9 11 mph 1010.8mb 50f 52f
10:50 4.5ft 10s 6s 11
mph
1010.4mb 49f 51f
9:50 5ft 10s 6s 9 11 mph 1010.5mb 50f 51f
8:50 4.5ft 10s 6s 9 11 mph 1010.2mb 50f 51f
7:50 4.5ft 10s 6s 11 13 mph 1009.9mb 50f 51f
6:50 4.5ft 9s 6s 11 13 mph 1009mb 50f 52f
5:50 4ft 10s 5s 13 16 mph 1008.7mb 50f 51f
4:50 3.5ft 8s 5s 11 13 mph 1008.9mb 50f 51f
3:50 3ft 6s 4s 16 20 mph 1009.1mb 50f 51f
2:50 2ft 8s 4s 16 18 mph 1009.6mb 50f 51f
1:50 1.6ft 8s 4s 13 16 mph 1010mb 50f 52f